Time,TemperatureF,DewpointF,PressureIn,WindDirection,WindDirectionDegrees,WindSpeedMPH,WindSpeedGustMPH,Humidity,HourlyPrecipIn,Conditions,Clouds,dailyrainin,SoftwareType,DateUTC
2013-03-24 00:00:00,28.8,12.9,30.04,ESE,112,1.1,1.1,51,0.00,RA,,0.00,WeatherDisplay:10.37,2013-03-24 05:00:00,
2013-03-24 00:05:00,28.6,12.7,30.04,SE,135,0.0,1.1,51,0.00,RA,,0.00,WeatherDisplay:10.37,2013-03-24 05:05:00,
2013-03-24 00:10:00,28.6,12.7,30.04,East,90,2.2,2.3,51,0.00,CLR,,0.00,WeatherDisplay:10.37,2013-03-24 05:10:00,
2013-03-24 00:15:00,28.6,12.7,30.04,ENE,68,1.6,2.3,51,0.00,CLR,,0.00,WeatherDisplay:10.37,2013-03-24 05:15:00,
2013-03-24 00:20:00,28.6,13.2,30.04,ENE,68,2.0,3.5,52,0.00,CLR,,0.00,WeatherDisplay:10.37,2013-03-24 05:20:00,
2013-03-24 00:25:00,28.8,13.8,30.04,ESE,112,2.9,3.6,53,0.00,CLR,,0.00,WeatherDisplay:10.37,2013-03-24 05:25:00,
2013-03-24 00:30:00,28.9,13.9,30.04,East,90,3.6,4.6,53,0.00,CLR,,0.00,WeatherDisplay:10.37,2013-03-24 05:30:00,
2013-03-24 00:35:00,28.9,13.9,30.04,East,90,1.6,3.5,53,0.00,CLR,,0.00,WeatherDisplay:10.37,2013-03-24 05:35:00,
2013-03-24 00:40:00,28.8,13.8,30.04,East,90,2.2,2.3,53,0.00,CLR,,0.00,WeatherDisplay:10.37,2013-03-24 05:40:00,
2013-03-24 00:45:00,28.8,13.3,30.04,East,90,0.9,2.3,52,0.00,CLR,,0.00,WeatherDisplay:10.37,2013-03-24 05:45:00,
2013-03-24 00:50:00,28.6,13.2,30.04,ENE,68,2.2,2.3,52,0.00,CLR,,0.00,WeatherDisplay:10.37,2013-03-24 05:50:00,
2013-03-24 00:55:00,28.6,13.6,30.04,ENE,68,1.6,2.3,53,0.00,CLR,,0.00,WeatherDisplay:10.37,2013-03-24 05:55:00,
2013-03-24 01:00:00,28.6,13.6,30.04,East,90,1.4,2.3,53,0.00,CLR,,0.00,WeatherDisplay:10.37,2013-03-24 06:00:00,
2013-03-24 01:05:00,28.6,14.0,30.04,ENE,68,2.4,2.4,54,0.00,CLR,,0.00,WeatherDisplay:10.37,2013-03-24 06:05:00,
2013-03-24 01:10:00,28.6,14.0,30.04,ENE,68,1.6,2.4,54,0.00,CLR,,0.00,WeatherDisplay:10.37,2013-03-24 06:10:00,
2013-03-24 01:15:00,28.6,14.0,30.04,ENE,68,2.4,3.5,54,0.00,CLR,,0.00,WeatherDisplay:10.37,2013-03-24 06:15:00,
2013-03-24 01:20:00,28.8,14.6,30.04,East,90,3.1,3.5,55,0.00,CLR,,0.00,WeatherDisplay:10.37,2013-03-24 06:20:00,
2013-03-24 01:25:00,28.8,14.6,30.04,East,90,2.4,3.8,55,0.00,CLR,,0.00,WeatherDisplay:10.37,2013-03-24 06:25:00,
2013-03-24 01:30:00,28.8,14.6,30.04,ENE,68,1.6,2.3,55,0.00,CLR,,0.00,WeatherDisplay:10.37,2013-03-24 06:30:00,
2013-03-24 01:35:00,28.8,14.6,30.04,East,90,3.1,4.6,55,0.00,CLR,,0.00,WeatherDisplay:10.37,2013-03-24 06:35:00,
2013-03-24 01:40:00,28.9,14.8,30.01,ENE,68,2.9,5.8,55,0.00,CLR,,0.00,WeatherDisplay:10.37,2013-03-24 06:40:00,
2013-03-24 01:45:00,28.9,14.8,30.01,ESE,112,2.2,4.6,55,0.00,CLR,,0.00,WeatherDisplay:10.37,2013-03-24 06:45:00,
2013-03-24 01:50:00,28.9,14.8,30.01,ENE,68,3.6,3.6,55,0.00,CLR,,0.00,WeatherDisplay:10.37,2013-03-24 06:50:00,
2013-03-24 01:55:00,28.8,14.6,30.01,ESE,112,2.9,4.0,55,0.00,CLR,,0.00,WeatherDisplay:10.37,2013-03-24 06:55:00,
2013-03-24 02:00:00,28.6,14.0,30.01,East,90,2.6,4.6,54,0.00,CLR,,0.00,WeatherDisplay:10.37,2013-03-24 07:00:00,
2013-03-24 02:05:00,28.6,14.0,30.01,ENE,68,2.0,3.5,54,0.00,CLR,,0.00,WeatherDisplay:10.37,2013-03-24 07:05:00,
2013-03-24 02:10:00,28.6,14.0,30.01,East,90,2.4,4.6,54,0.00,CLR,,0.00,WeatherDisplay:10.37,2013-03-24 07:10:00,
2013-03-24 02:15:00,28.6,14.4,30.01,East,90,3.1,3.5,55,0.00,CLR,,0.00,WeatherDisplay:10.37,2013-03-24 07:15:00,
2013-03-24 02:21:00,28.6,14.0,30.01,SE,135,2.2,3.5,54,0.00,CLR,,0.00,WeatherDisplay:10.37,2013-03-24 07:21:00,
2013-03-24 02:26:00,28.6,14.0,30.01,ESE,112,2.0,2.3,54,0.00,CLR,,0.00,WeatherDisplay:10.37,2013-03-24 07:26:00,
2013-03-24 02:31:00,28.6,14.0,30.01,ENE,68,2.2,3.5,54,0.00,CLR,,0.00,WeatherDisplay:10.37,2013-03-24 07:31:00,
2013-03-24 02:36:00,28.6,14.4,30.01,ESE,112,2.6,4.6,55,0.00,CLR,,0.00,WeatherDisplay:10.37,2013-03-24 07:36:00,
2013-03-24 02:41:00,28.6,14.4,30.01,East,90,2.4,3.5,55,0.00,CLR,,0.00,WeatherDisplay:10.37,2013-03-24 07:41:00,
2013-03-24 02:46:00,28.6,14.4,30.01,ESE,112,2.0,4.6,55,0.00,CLR,,0.00,WeatherDisplay:10.37,2013-03-24 07:46:00,
2013-03-24 02:51:00,28.8,15.0,30.01,ESE,112,2.4,3.5,56,0.00,CLR,,0.00,WeatherDisplay:10.37,2013-03-24 07:51:00,
2013-03-24 02:56:00,28.8,15.0,30.01,SSE,158,3.3,3.8,56,0.00,CLR,,0.00,WeatherDisplay:10.37,2013-03-24 07:56:00,
2013-03-24 03:01:00,28.6,14.4,30.01,SE,135,0.0,2.3,55,0.00,CLR,,0.00,WeatherDisplay:10.37,2013-03-24 08:01:00,
2013-03-24 03:06:00,28.6,14.4,30.01,ESE,112,1.6,2.3,55,0.00,CLR,,0.00,WeatherDisplay:10.37,2013-03-24 08:06:00,
2013-03-24 03:11:00,28.6,14.9,30.04,East,90,2.9,3.5,56,0.00,CLR,,0.00,WeatherDisplay:10.37,2013-03-24 08:11:00,
2013-03-24 03:16:00,28.8,15.0,30.04,ESE,112,2.2,3.8,56,0.00,CLR,,0.00,WeatherDisplay:10.37,2013-03-24 08:16:00,
2013-03-24 03:21:00,28.8,15.0,30.04,East,90,1.1,1.4,56,0.00,CLR,,0.00,WeatherDisplay:10.37,2013-03-24 08:21:00,
2013-03-24 03:26:00,28.6,14.9,30.01,ENE,68,2.6,3.5,56,0.00,CLR,,0.00,WeatherDisplay:10.37,2013-03-24 08:26:00,
2013-03-24 03:31:00,28.8,15.0,30.01,ENE,68,3.1,3.5,56,0.00,CLR,,0.00,WeatherDisplay:10.37,2013-03-24 08:31:00,
2013-03-24 03:36:00,28.8,15.0,30.01,NE,45,3.6,4.6,56,0.00,CLR,,0.00,WeatherDisplay:10.37,2013-03-24 08:36:00,
2013-03-24 03:41:00,28.8,15.0,30.01,NE,45,2.0,2.3,56,0.00,CLR,,0.00,WeatherDisplay:10.37,2013-03-24 08:41:00,
2013-03-24 03:46:00,28.8,15.0,30.01,ENE,68,2.6,3.6,56,0.00,CLR,,0.00,WeatherDisplay:10.37,2013-03-24 08:46:00,
2013-03-24 03:52:00,28.8,15.0,30.01,North,0,2.6,3.5,56,0.00,CLR,,0.00,WeatherDisplay:10.37,2013-03-24 08:52:00,
2013-03-24 03:57:00,28.8,15.0,30.01,NE,45,2.9,4.6,56,0.00,CLR,,0.00,WeatherDisplay:10.37,2013-03-24 08:57:00,
2013-03-24 04:02:00,28.8,15.0,30.01,NE,45,4.7,5.8,56,0.00,CLR,,0.00,WeatherDisplay:10.37,2013-03-24 09:02:00,
2013-03-24 04:07:00,28.8,15.0,30.01,NE,45,4.0,5.8,56,0.00,CLR,,0.00,WeatherDisplay:10.37,2013-03-24 09:07:00,
2013-03-24 04:12:00,28.8,15.0,30.01,NE,45,2.9,4.6,56,0.00,CLR,,0.00,WeatherDisplay:10.37,2013-03-24 09:12:00,
2013-03-24 04:17:00,28.8,15.4,30.01,NE,45,6.2,6.9,57,0.00,CLR,,0.00,WeatherDisplay:10.37,2013-03-24 09:17:00,
2013-03-24 04:22:00,28.8,15.0,30.01,ENE,68,1.4,3.5,56,0.00,CLR,,0.00,WeatherDisplay:10.37,2013-03-24 09:22:00,
2013-03-24 04:27:00,28.6,15.3,30.01,East,90,2.9,5.9,57,0.00,CLR,,0.00,WeatherDisplay:10.37,2013-03-24 09:27:00,
2013-03-24 04:32:00,28.6,15.3,30.01,ENE,68,2.9,3.5,57,0.00,CLR,,0.00,WeatherDisplay:10.37,2013-03-24 09:32:00,
2013-03-24 04:37:00,28.6,15.3,30.01,NE,45,2.2,3.5,57,0.00,CLR,,0.00,WeatherDisplay:10.37,2013-03-24 09:37:00,
2013-03-24 04:42:00,28.6,15.3,30.01,NNE,22,2.6,3.5,57,0.00,CLR,,0.00,WeatherDisplay:10.37,2013-03-24 09:42:00,
2013-03-24 04:47:00,28.6,15.7,30.01,NE,45,4.3,5.8,58,0.00,CLR,,0.00,WeatherDisplay:10.37,2013-03-24 09:47:00,
2013-03-24 04:52:00,28.6,15.7,30.01,NE,45,3.1,4.6,58,0.00,CLR,,0.00,WeatherDisplay:10.37,2013-03-24 09:52:00,
2013-03-24 04:57:00,28.6,16.1,30.01,NE,45,2.9,4.6,59,0.00,CLR,,0.00,WeatherDisplay:10.37,2013-03-24 09:57:00,
2013-03-24 05:02:00,28.6,16.1,30.01,NE,45,5.6,5.8,59,0.00,CLR,,0.00,WeatherDisplay:10.37,2013-03-24 10:02:00,
2013-03-24 05:07:00,28.6,16.1,30.01,ENE,68,4.7,6.9,59,0.00,CLR,,0.00,WeatherDisplay:10.37,2013-03-24 10:07:00,
2013-03-24 05:12:00,28.6,16.1,29.98,NE,45,3.3,5.8,59,0.00,CLR,,0.00,WeatherDisplay:10.37,2013-03-24 10:12:00,
2013-03-24 05:17:00,28.6,16.1,29.98,ENE,68,5.9,5.9,59,0.00,CLR,,0.00,WeatherDisplay:10.37,2013-03-24 10:17:00,
2013-03-24 05:22:00,28.6,16.1,29.98,NNE,22,4.0,6.9,59,0.00,CLR,,0.00,WeatherDisplay:10.37,2013-03-24 10:22:00,
2013-03-24 05:28:00,28.6,16.1,29.98,NE,45,4.7,4.7,59,0.00,CLR,,0.00,WeatherDisplay:10.37,2013-03-24 10:28:00,
2013-03-24 05:33:00,28.6,16.4,29.98,NE,45,3.6,4.6,60,0.00,CLR,,0.00,WeatherDisplay:10.37,2013-03-24 10:33:00,
2013-03-24 05:38:00,28.6,16.4,29.98,NNE,22,2.6,3.8,60,0.00,CLR,,0.00,WeatherDisplay:10.37,2013-03-24 10:38:00,
2013-03-24 05:43:00,28.6,16.4,29.98,NE,45,2.9,3.5,60,0.00,CLR,,0.00,WeatherDisplay:10.37,2013-03-24 10:43:00,
2013-03-24 05:48:00,28.6,16.4,29.98,NNE,22,4.0,5.8,60,0.00,CLR,,0.00,WeatherDisplay:10.37,2013-03-24 10:48:00,
2013-03-24 05:53:00,28.4,16.3,29.98,ENE,68,3.6,4.6,60,0.00,CLR,,0.00,WeatherDisplay:10.37,2013-03-24 10:53:00,
2013-03-24 05:58:00,28.4,16.3,29.98,NNE,22,4.3,5.8,60,0.00,CLR,,0.00,WeatherDisplay:10.37,2013-03-24 10:58:00,
2013-03-24 06:03:00,28.4,16.7,29.98,ENE,68,3.3,8.5,61,0.00,CLR,,0.00,WeatherDisplay:10.37,2013-03-24 11:03:00,
2013-03-24 06:08:00,28.4,16.3,29.98,NNE,22,5.4,6.2,60,0.00,CLR,,0.00,WeatherDisplay:10.37,2013-03-24 11:08:00,
2013-03-24 06:13:00,28.6,16.4,29.95,ENE,68,4.9,5.8,60,0.00,CLR,,0.00,WeatherDisplay:10.37,2013-03-24 11:13:00,
2013-03-24 06:18:00,28.4,16.3,29.95,North,0,4.9,5.8,60,0.00,CLR,,0.00,WeatherDisplay:10.37,2013-03-24 11:18:00,
2013-03-24 06:23:00,28.4,16.3,29.95,NNE,22,3.6,4.6,60,0.00,CLR,,0.00,WeatherDisplay:10.37,2013-03-24 11:23:00,
2013-03-24 06:28:00,28.4,16.3,29.95,NNE,22,4.0,5.8,60,0.00,CLR,,0.00,WeatherDisplay:10.37,2013-03-24 11:28:00,
2013-03-24 06:33:00,28.4,16.3,29.95,NNE,22,3.8,5.8,60,0.00,CLR,,0.00,WeatherDisplay:10.37,2013-03-24 11:33:00,
2013-03-24 06:38:00,28.4,16.3,29.95,NNE,22,4.9,5.8,60,0.00,CLR,,0.00,WeatherDisplay:10.37,2013-03-24 11:38:00,
2013-03-24 06:43:00,28.6,16.1,29.95,North,0,3.1,3.6,59,0.00,CLR,,0.00,WeatherDisplay:10.37,2013-03-24 11:43:00,
2013-03-24 06:48:00,28.6,16.1,29.95,NE,45,4.3,5.9,59,0.00,CLR,,0.00,WeatherDisplay:10.37,2013-03-24 11:48:00,
2013-03-24 06:53:00,28.6,16.1,29.95,NNE,22,4.5,6.9,59,0.00,CLR,,0.00,WeatherDisplay:10.37,2013-03-24 11:53:00,
2013-03-24 06:58:00,28.6,16.1,29.98,North,0,3.8,4.9,59,0.00,CLR,,0.00,WeatherDisplay:10.37,2013-03-24 11:58:00,
2013-03-24 07:03:00,28.6,16.1,29.98,NNE,22,3.3,4.6,59,0.00,CLR,,0.00,WeatherDisplay:10.37,2013-03-24 12:03:00,
2013-03-24 07:08:00,28.6,16.1,29.98,NNE,22,3.6,4.6,59,0.00,CLR,,0.00,WeatherDisplay:10.37,2013-03-24 12:08:00,
2013-03-24 07:13:00,28.6,16.1,29.98,NNE,22,4.3,5.9,59,0.00,CLR,,0.00,WeatherDisplay:10.37,2013-03-24 12:13:00,
2013-03-24 07:18:00,28.8,16.2,29.98,NE,45,5.6,8.1,59,0.00,CLR,,0.00,WeatherDisplay:10.37,2013-03-24 12:18:00,
2013-03-24 07:23:00,28.8,16.2,29.98,NE,45,4.5,6.4,59,0.00,CLR,,0.00,WeatherDisplay:10.37,2013-03-24 12:23:00,
2013-03-24 07:28:00,28.8,16.2,29.98,NNE,22,4.7,5.8,59,0.00,CLR,,0.00,WeatherDisplay:10.37,2013-03-24 12:28:00,
2013-03-24 07:33:00,28.9,16.0,29.98,NNE,22,4.5,9.2,58,0.00,CLR,,0.00,WeatherDisplay:10.37,2013-03-24 12:33:00,
2013-03-24 07:38:00,28.9,16.0,29.98,NE,45,6.0,8.1,58,0.00,CLR,,0.00,WeatherDisplay:10.37,2013-03-24 12:38:00,
2013-03-24 07:43:00,29.1,16.2,29.95,NNE,22,6.2,6.2,58,0.00,CLR,,0.00,WeatherDisplay:10.37,2013-03-24 12:43:00,
2013-03-24 07:48:00,29.1,16.2,29.95,NNE,22,3.6,8.1,58,0.00,CLR,,0.00,WeatherDisplay:10.37,2013-03-24 12:48:00,
2013-03-24 07:53:00,29.1,16.2,29.95,NNE,22,3.3,5.8,58,0.00,CLR,,0.00,WeatherDisplay:10.37,2013-03-24 12:53:00,
2013-03-24 07:58:00,29.1,16.2,29.95,NNE,22,4.0,5.8,58,0.00,CLR,,0.00,WeatherDisplay:10.37,2013-03-24 12:58:00,
2013-03-24 08:03:00,29.1,16.2,29.95,East,90,4.0,4.6,58,0.00,CLR,,0.00,WeatherDisplay:10.37,2013-03-24 13:03:00,
2013-03-24 08:08:00,29.3,16.3,29.95,NNE,22,4.3,5.8,58,0.00,CLR,,0.00,WeatherDisplay:10.37,2013-03-24 13:08:00,
2013-03-24 08:13:00,29.3,16.3,29.95,NE,45,5.9,7.1,58,0.00,CLR,,0.00,WeatherDisplay:10.37,2013-03-24 13:13:00,
2013-03-24 08:19:00,29.3,16.7,29.95,ENE,68,5.6,6.9,59,0.00,CLR,,0.00,WeatherDisplay:10.37,2013-03-24 13:19:00,
2013-03-24 08:24:00,29.5,16.9,29.95,NE,45,5.4,8.5,59,0.00,CLR,,0.00,WeatherDisplay:10.37,2013-03-24 13:24:00,
2013-03-24 08:29:00,29.5,16.5,29.95,NE,45,6.2,8.1,58,0.02,RA,,0.02,WeatherDisplay:10.37,2013-03-24 13:29:00,
2013-03-24 08:34:00,29.7,17.1,29.95,NNE,22,5.9,6.4,59,0.02,RA,,0.02,WeatherDisplay:10.37,2013-03-24 13:34:00,
2013-03-24 08:39:00,29.7,17.1,29.95,NNE,22,3.8,5.8,59,0.02,,,0.02,WeatherDisplay:10.37,2013-03-24 13:39:00,
2013-03-24 08:44:00,29.8,17.2,29.95,NNE,22,3.6,6.4,59,0.02,CLR,,0.02,WeatherDisplay:10.37,2013-03-24 13:44:00,
2013-03-24 08:49:00,29.8,17.2,29.95,NNE,22,4.7,4.7,59,0.02,CLR,,0.02,WeatherDisplay:10.37,2013-03-24 13:49:00,
2013-03-24 08:54:00,29.8,17.2,29.95,NE,45,4.9,4.9,59,0.02,CLR,,0.02,WeatherDisplay:10.37,2013-03-24 13:54:00,
2013-03-24 08:59:00,30.0,17.0,29.95,NE,45,5.9,8.1,58,0.02,CLR,,0.02,WeatherDisplay:10.37,2013-03-24 13:59:00,
2013-03-24 09:04:00,30.0,17.0,29.95,ENE,68,5.9,9.2,58,0.02,CLR,,0.02,WeatherDisplay:10.37,2013-03-24 14:04:00,
2013-03-24 09:09:00,30.2,17.6,29.95,NE,45,6.0,6.9,59,0.02,CLR,,0.02,WeatherDisplay:10.37,2013-03-24 14:09:00,
2013-03-24 09:14:00,30.0,17.8,29.95,ENE,68,5.4,7.8,60,0.02,CLR,,0.02,WeatherDisplay:10.37,2013-03-24 14:14:00,
2013-03-24 09:19:00,29.8,18.4,29.95,East,90,6.0,8.1,62,0.02,CLR,,0.02,WeatherDisplay:10.37,2013-03-24 14:19:00,
2013-03-24 09:24:00,29.5,19.5,29.95,ENE,68,7.1,8.1,66,0.02,CLR,,0.02,WeatherDisplay:10.37,2013-03-24 14:24:00,
2013-03-24 09:29:00,29.3,20.4,29.95,NE,45,9.4,11.5,69,0.00,CLR,,0.02,WeatherDisplay:10.37,2013-03-24 14:29:00,
2013-03-24 09:34:00,29.1,21.2,29.95,ENE,68,5.9,8.1,72,0.00,CLR,,0.02,WeatherDisplay:10.37,2013-03-24 14:34:00,
2013-03-24 09:39:00,29.1,21.5,29.95,NE,45,3.8,6.9,73,0.00,CLR,,0.02,WeatherDisplay:10.37,2013-03-24 14:39:00,
2013-03-24 09:44:00,29.5,22.5,29.95,ENE,68,4.9,8.1,75,0.00,CLR,,0.02,WeatherDisplay:10.37,2013-03-24 14:44:00,
2013-03-24 09:49:00,29.8,22.9,29.95,ENE,68,3.3,4.6,75,0.00,CLR,,0.02,WeatherDisplay:10.37,2013-03-24 14:49:00,
2013-03-24 09:54:00,30.0,23.1,29.95,NE,45,4.5,5.8,75,0.00,CLR,,0.02,WeatherDisplay:10.37,2013-03-24 14:54:00,
2013-03-24 09:59:00,30.4,23.1,29.95,North,0,2.9,4.6,74,0.00,CLR,,0.02,WeatherDisplay:10.37,2013-03-24 14:59:00,
2013-03-24 10:04:00,30.4,22.8,29.95,NE,45,4.5,5.8,73,0.00,CLR,,0.02,WeatherDisplay:10.37,2013-03-24 15:04:00,
2013-03-24 10:09:00,30.2,22.9,29.95,NNE,22,3.8,5.8,74,0.00,CLR,,0.02,WeatherDisplay:10.37,2013-03-24 15:09:00,
2013-03-24 10:14:00,30.2,22.6,29.98,NNE,22,7.4,7.6,73,0.00,CLR,,0.02,WeatherDisplay:10.37,2013-03-24 15:14:00,
2013-03-24 10:19:00,30.2,22.9,29.98,NE,45,4.5,5.8,74,0.00,CLR,,0.02,WeatherDisplay:10.37,2013-03-24 15:19:00,
2013-03-24 10:24:00,30.6,23.3,29.98,NE,45,3.3,5.9,74,0.00,CLR,,0.02,WeatherDisplay:10.37,2013-03-24 15:24:00,
2013-03-24 10:29:00,30.7,23.1,29.95,ESE,112,2.6,4.6,73,0.00,CLR,,0.02,WeatherDisplay:10.37,2013-03-24 15:29:00,
2013-03-24 10:34:00,30.9,23.0,29.95,NE,45,3.3,6.9,72,0.00,CLR,,0.02,WeatherDisplay:10.37,2013-03-24 15:34:00,
2013-03-24 10:39:00,30.9,23.0,29.95,NE,45,4.9,6.0,72,0.00,CLR,,0.02,WeatherDisplay:10.37,2013-03-24 15:39:00,
2013-03-24 10:44:00,30.9,23.3,29.95,NNE,22,4.7,6.9,73,0.00,CLR,,0.02,WeatherDisplay:10.37,2013-03-24 15:44:00,
2013-03-24 10:49:00,31.5,23.5,29.95,NNE,22,4.5,6.9,72,0.00,CLR,,0.02,WeatherDisplay:10.37,2013-03-24 15:49:00,
2013-03-24 10:54:00,31.1,23.1,29.95,NE,45,4.5,6.9,72,0.00,CLR,,0.02,WeatherDisplay:10.37,2013-03-24 15:54:00,
2013-03-24 10:59:00,30.9,23.0,29.95,North,0,5.4,7.8,72,0.00,CLR,,0.02,WeatherDisplay:10.37,2013-03-24 15:59:00,
2013-03-24 11:04:00,31.1,23.5,29.95,NE,45,4.0,5.8,73,0.00,CLR,,0.02,WeatherDisplay:10.37,2013-03-24 16:04:00,
2013-03-24 11:09:00,31.3,23.3,29.92,NNE,22,4.9,6.7,72,0.00,CLR,,0.02,WeatherDisplay:10.37,2013-03-24 16:09:00,
2013-03-24 11:14:00,30.9,23.0,29.92,NNE,22,5.4,6.9,72,0.00,CLR,,0.02,WeatherDisplay:10.37,2013-03-24 16:14:00,
2013-03-24 11:19:00,30.9,23.0,29.92,ENE,68,6.0,9.2,72,0.00,CLR,,0.02,WeatherDisplay:10.37,2013-03-24 16:19:00,
2013-03-24 11:24:00,31.5,23.5,29.92,NE,45,5.6,8.1,72,0.00,CLR,,0.02,WeatherDisplay:10.37,2013-03-24 16:24:00,
2013-03-24 11:29:00,32.0,23.3,29.92,NNE,22,6.9,6.9,70,0.00,CLR,,0.02,WeatherDisplay:10.37,2013-03-24 16:29:00,
2013-03-24 11:34:00,32.7,24.0,29.92,ENE,68,6.7,7.4,70,0.00,CLR,,0.02,WeatherDisplay:10.37,2013-03-24 16:34:00,
2013-03-24 11:39:00,32.9,23.1,29.92,NNE,22,6.2,10.4,67,0.00,CLR,,0.02,WeatherDisplay:10.37,2013-03-24 16:39:00,
2013-03-24 11:44:00,33.4,22.9,29.92,ENE,68,5.9,8.5,65,0.00,CLR,,0.02,WeatherDisplay:10.37,2013-03-24 16:44:00,
2013-03-24 11:49:00,33.6,22.7,29.92,NNE,22,5.6,6.9,64,0.00,CLR,,0.02,WeatherDisplay:10.37,2013-03-24 16:49:00,
2013-03-24 11:54:00,33.8,22.9,29.92,ENE,68,4.9,6.9,64,0.00,CLR,,0.02,WeatherDisplay:10.37,2013-03-24 16:54:00,
2013-03-24 11:59:00,34.2,22.5,29.92,NE,45,8.1,9.2,62,0.00,CLR,,0.02,WeatherDisplay:10.37,2013-03-24 16:59:00,
2013-03-24 12:04:00,34.9,22.4,29.92,NNE,22,5.9,8.7,60,0.00,CLR,,0.02,WeatherDisplay:10.37,2013-03-24 17:04:00,
2013-03-24 12:09:00,35.4,22.1,29.92,East,90,5.4,9.2,58,0.00,CLR,,0.02,WeatherDisplay:10.37,2013-03-24 17:09:00,
2013-03-24 12:14:00,34.7,20.6,29.92,NE,45,7.4,13.2,56,0.00,CLR,,0.02,WeatherDisplay:10.37,2013-03-24 17:14:00,
2013-03-24 12:19:00,34.2,20.9,29.92,NE,45,6.9,11.5,58,0.00,CLR,,0.02,WeatherDisplay:10.37,2013-03-24 17:19:00,
2013-03-24 12:24:00,33.6,21.2,29.92,NE,45,8.5,11.5,60,0.00,CLR,,0.02,WeatherDisplay:10.37,2013-03-24 17:24:00,
2013-03-24 12:30:00,35.4,22.5,29.92,NNE,22,4.7,6.9,59,0.00,CLR,,0.02,WeatherDisplay:10.37,2013-03-24 17:30:00,
2013-03-24 12:35:00,36.7,22.9,29.92,NE,45,6.0,6.9,57,0.00,CLR,,0.02,WeatherDisplay:10.37,2013-03-24 17:35:00,
2013-03-24 12:40:00,35.6,20.6,29.92,North,0,5.6,6.9,54,0.00,CLR,,0.02,WeatherDisplay:10.37,2013-03-24 17:40:00,
2013-03-24 12:45:00,35.2,20.2,29.92,NNE,22,7.8,11.5,54,0.00,CLR,,0.02,WeatherDisplay:10.37,2013-03-24 17:45:00,
2013-03-24 12:50:00,34.3,19.4,29.92,NE,45,9.4,12.7,54,0.00,CLR,,0.02,WeatherDisplay:10.37,2013-03-24 17:50:00,
2013-03-24 12:55:00,34.3,20.3,29.89,NE,45,9.0,12.7,56,0.00,CLR,,0.02,WeatherDisplay:10.37,2013-03-24 17:55:00,
2013-03-24 13:00:00,34.5,20.0,29.89,North,0,8.1,10.4,55,0.00,CLR,,0.02,WeatherDisplay:10.37,2013-03-24 18:00:00,
2013-03-24 13:05:00,33.8,20.2,29.89,NE,45,6.7,9.7,57,0.00,CLR,,0.02,WeatherDisplay:10.37,2013-03-24 18:05:00,
2013-03-24 13:10:00,34.2,20.5,29.89,NNE,22,6.7,10.4,57,0.00,CLR,,0.02,WeatherDisplay:10.37,2013-03-24 18:10:00,
2013-03-24 13:15:00,34.3,20.3,29.89,NE,45,4.3,9.2,56,0.00,CLR,,0.02,WeatherDisplay:10.37,2013-03-24 18:15:00,
2013-03-24 13:20:00,34.3,20.3,29.89,NE,45,5.6,9.2,56,0.00,CLR,,0.02,WeatherDisplay:10.37,2013-03-24 18:20:00,
2013-03-24 13:25:00,34.3,19.8,29.89,NNE,22,6.0,10.7,55,0.00,CLR,,0.02,WeatherDisplay:10.37,2013-03-24 18:25:00,
2013-03-24 13:30:00,34.7,20.2,29.89,North,0,5.6,6.9,55,0.00,CLR,,0.02,WeatherDisplay:10.37,2013-03-24 18:30:00,
2013-03-24 13:35:00,34.7,20.6,29.89,ENE,68,4.5,5.8,56,0.00,CLR,,0.02,WeatherDisplay:10.37,2013-03-24 18:35:00,
2013-03-24 13:40:00,34.2,20.1,29.86,NE,45,7.1,7.1,56,0.00,CLR,,0.02,WeatherDisplay:10.37,2013-03-24 18:40:00,
2013-03-24 13:45:00,33.8,19.7,29.86,NE,45,7.4,11.5,56,0.00,CLR,,0.02,WeatherDisplay:10.37,2013-03-24 18:45:00,
2013-03-24 13:50:00,34.0,21.1,29.86,ENE,68,3.8,6.9,59,0.00,CLR,,0.02,WeatherDisplay:10.37,2013-03-24 18:50:00,
2013-03-24 13:55:00,34.3,21.5,29.89,NE,45,6.4,8.1,59,0.00,CLR,,0.02,WeatherDisplay:10.37,2013-03-24 18:55:00,
2013-03-24 14:00:00,34.0,21.1,29.89,NE,45,6.7,9.2,59,0.00,CLR,,0.02,WeatherDisplay:10.37,2013-03-24 19:00:00,
2013-03-24 14:05:00,34.0,21.5,29.89,NNE,22,6.7,6.9,60,0.00,CLR,,0.02,WeatherDisplay:10.37,2013-03-24 19:05:00,
2013-03-24 14:10:00,34.9,22.0,29.89,NNE,22,6.2,7.4,59,0.00,CLR,,0.02,WeatherDisplay:10.37,2013-03-24 19:10:00,
2013-03-24 14:15:00,35.2,21.9,29.89,NNE,22,4.9,8.1,58,0.00,CLR,,0.02,WeatherDisplay:10.37,2013-03-24 19:15:00,
2013-03-24 14:20:00,35.4,21.7,29.89,NE,45,5.9,6.2,57,0.00,CLR,,0.02,WeatherDisplay:10.37,2013-03-24 19:20:00,
2013-03-24 14:25:00,35.8,22.0,29.86,North,0,6.7,8.1,57,0.00,CLR,,0.02,WeatherDisplay:10.37,2013-03-24 19:25:00,
2013-03-24 14:30:00,35.4,21.7,29.86,NNE,22,6.9,8.1,57,0.00,CLR,,0.02,WeatherDisplay:10.37,2013-03-24 19:30:00,
2013-03-24 14:35:00,35.1,21.8,29.86,NE,45,6.0,8.1,58,0.00,CLR,,0.02,WeatherDisplay:10.37,2013-03-24 19:35:00,
2013-03-24 14:40:00,34.5,21.7,29.86,NNE,22,5.6,8.1,59,0.00,CLR,,0.02,WeatherDisplay:10.37,2013-03-24 19:40:00,
2013-03-24 14:45:00,34.9,22.0,29.86,NNE,22,6.0,8.1,59,0.00,CLR,,0.02,WeatherDisplay:10.37,2013-03-24 19:45:00,
2013-03-24 14:50:00,35.4,22.1,29.86,NE,45,6.7,8.1,58,0.00,CLR,,0.02,WeatherDisplay:10.37,2013-03-24 19:50:00,
2013-03-24 14:55:00,34.2,20.5,29.86,NE,45,9.2,12.7,57,0.00,CLR,,0.04,WeatherDisplay:10.37,2013-03-24 19:55:00,
2013-03-24 15:00:00,34.0,21.5,29.86,NE,45,7.4,10.5,60,0.02,RA,,0.04,WeatherDisplay:10.37,2013-03-24 20:00:00,
2013-03-24 15:05:00,34.3,21.5,29.86,NNE,22,6.7,10.4,59,0.02,RA,,0.04,WeatherDisplay:10.37,2013-03-24 20:05:00,
2013-03-24 15:10:00,34.0,21.5,29.83,NNW,338,6.7,10.4,60,0.02,CLR,,0.04,WeatherDisplay:10.37,2013-03-24 20:10:00,
2013-03-24 15:15:00,34.0,21.9,29.83,NNE,22,5.4,8.1,61,0.02,CLR,,0.04,WeatherDisplay:10.37,2013-03-24 20:15:00,
2013-03-24 15:20:00,33.8,21.8,29.83,NE,45,5.6,8.7,61,0.02,CLR,,0.04,WeatherDisplay:10.37,2013-03-24 20:20:00,
2013-03-24 15:25:00,33.6,22.0,29.83,NNE,22,5.6,8.1,62,0.02,CLR,,0.04,WeatherDisplay:10.37,2013-03-24 20:25:00,
2013-03-24 15:30:00,34.0,21.9,29.83,NNE,22,6.7,8.1,61,0.02,CLR,,0.04,WeatherDisplay:10.37,2013-03-24 20:30:00,
2013-03-24 15:36:00,33.4,21.8,29.83,NE,45,7.1,9.2,62,0.02,CLR,,0.04,WeatherDisplay:10.37,2013-03-24 20:36:00,
2013-03-24 15:42:00,33.8,21.0,29.83,NNE,22,5.9,5.9,59,0.02,CLR,,0.04,WeatherDisplay:10.37,2013-03-24 20:42:00,
2013-03-24 15:47:00,34.0,21.5,29.83,NNE,22,5.6,6.9,60,0.02,CLR,,0.04,WeatherDisplay:10.37,2013-03-24 20:47:00,
2013-03-24 15:52:00,34.5,21.7,29.83,NNE,22,4.0,4.6,59,0.02,CLR,,0.04,WeatherDisplay:10.37,2013-03-24 20:52:00,
2013-03-24 15:57:00,35.2,23.1,29.83,North,0,4.3,6.9,61,0.00,CLR,,0.04,WeatherDisplay:10.37,2013-03-24 20:57:00,
2013-03-24 16:02:00,34.5,20.8,29.83,NNE,22,5.9,8.1,57,0.00,CLR,,0.04,WeatherDisplay:10.37,2013-03-24 21:02:00,
2013-03-24 16:07:00,34.0,21.5,29.83,NE,45,3.6,5.9,60,0.00,CLR,,0.04,WeatherDisplay:10.37,2013-03-24 21:07:00,
2013-03-24 16:12:00,33.8,21.8,29.83,NNE,22,4.3,5.8,61,0.00,CLR,,0.04,WeatherDisplay:10.37,2013-03-24 21:12:00,
2013-03-24 16:17:00,34.5,23.2,29.83,NNE,22,4.3,5.8,63,0.00,CLR,,0.04,WeatherDisplay:10.37,2013-03-24 21:17:00,
2013-03-24 16:22:00,34.3,23.0,29.83,NNE,22,4.9,5.9,63,0.00,CLR,,0.04,WeatherDisplay:10.37,2013-03-24 21:22:00,
2013-03-24 16:27:00,34.0,22.7,29.83,NNE,22,4.3,6.9,63,0.00,CLR,,0.04,WeatherDisplay:10.37,2013-03-24 21:27:00,
2013-03-24 16:32:00,33.6,22.4,29.83,NNE,22,4.5,5.8,63,0.00,CLR,,0.04,WeatherDisplay:10.37,2013-03-24 21:32:00,
2013-03-24 16:37:00,33.6,22.7,29.83,NNW,338,5.6,6.2,64,0.00,CLR,,0.04,WeatherDisplay:10.37,2013-03-24 21:37:00,
2013-03-24 16:42:00,33.1,22.6,29.86,North,0,6.0,9.2,65,0.00,CLR,,0.04,WeatherDisplay:10.37,2013-03-24 21:42:00,
2013-03-24 16:47:00,33.3,22.8,29.86,NNW,338,4.0,8.1,65,0.00,CLR,,0.04,WeatherDisplay:10.37,2013-03-24 21:47:00,
2013-03-24 16:52:00,33.4,24.0,29.86,NNW,338,3.3,5.8,68,0.00,CLR,,0.04,WeatherDisplay:10.37,2013-03-24 21:52:00,
2013-03-24 16:57:00,33.4,24.0,29.83,North,0,4.3,5.8,68,0.00,CLR,,0.04,WeatherDisplay:10.37,2013-03-24 21:57:00,
2013-03-24 17:02:00,32.9,23.1,29.83,NNE,22,4.5,5.8,67,0.00,CLR,,0.04,WeatherDisplay:10.37,2013-03-24 22:02:00,
2013-03-24 17:07:00,32.5,22.8,29.83,NNE,22,4.0,5.8,67,0.00,CLR,,0.04,WeatherDisplay:10.37,2013-03-24 22:07:00,
2013-03-24 17:12:00,32.7,22.6,29.83,NNE,22,4.5,6.9,66,0.00,CLR,,0.04,WeatherDisplay:10.37,2013-03-24 22:12:00,
2013-03-24 17:17:00,32.7,22.6,29.83,NW,315,2.9,3.5,66,0.00,CLR,,0.04,WeatherDisplay:10.37,2013-03-24 22:17:00,
2013-03-24 17:22:00,32.7,22.2,29.83,NNW,338,5.9,5.9,65,0.00,CLR,,0.04,WeatherDisplay:10.37,2013-03-24 22:22:00,
2013-03-24 17:27:00,32.7,22.2,29.83,North,0,4.5,4.5,65,0.00,CLR,,0.04,WeatherDisplay:10.37,2013-03-24 22:27:00,
2013-03-24 17:32:00,32.5,21.7,29.83,North,0,3.6,6.9,64,0.00,CLR,,0.04,WeatherDisplay:10.37,2013-03-24 22:32:00,
2013-03-24 17:37:00,32.5,21.3,29.83,North,0,5.4,8.1,63,0.00,CLR,,0.04,WeatherDisplay:10.37,2013-03-24 22:37:00,
2013-03-24 17:42:00,32.5,21.0,29.83,North,0,3.1,5.8,62,0.00,CLR,,0.04,WeatherDisplay:10.37,2013-03-24 22:42:00,
2013-03-24 17:47:00,32.5,19.4,29.83,NNE,22,6.0,6.2,58,0.00,CLR,,0.04,WeatherDisplay:10.37,2013-03-24 22:47:00,
2013-03-24 17:53:00,32.5,17.3,29.83,NNE,22,6.7,8.1,53,0.00,CLR,,0.04,WeatherDisplay:10.37,2013-03-24 22:53:00,
2013-03-24 17:58:00,32.5,17.7,29.83,NNE,22,5.9,5.9,54,0.00,CLR,,0.04,WeatherDisplay:10.37,2013-03-24 22:58:00,
2013-03-24 18:03:00,32.7,17.9,29.83,NE,45,4.7,6.9,54,0.00,CLR,,0.04,WeatherDisplay:10.37,2013-03-24 23:03:00,
2013-03-24 18:08:00,32.7,17.9,29.83,NNW,338,5.6,5.8,54,0.00,CLR,,0.04,WeatherDisplay:10.37,2013-03-24 23:08:00,
2013-03-24 18:13:00,32.7,17.9,29.83,NNE,22,3.8,5.8,54,0.00,CLR,,0.04,WeatherDisplay:10.37,2013-03-24 23:13:00,
2013-03-24 18:18:00,32.7,17.9,29.83,NNW,338,3.3,5.8,54,0.00,CLR,,0.04,WeatherDisplay:10.37,2013-03-24 23:18:00,
2013-03-24 18:23:00,32.7,17.9,29.83,NNW,338,4.3,5.8,54,0.00,CLR,,0.04,WeatherDisplay:10.37,2013-03-24 23:23:00,
2013-03-24 18:28:00,32.7,17.5,29.83,NW,315,4.9,5.8,53,0.00,CLR,,0.04,WeatherDisplay:10.37,2013-03-24 23:28:00,
2013-03-24 18:33:00,32.5,17.3,29.83,North,0,4.9,5.8,53,0.00,CLR,,0.04,WeatherDisplay:10.37,2013-03-24 23:33:00,
2013-03-24 18:38:00,32.5,17.3,29.83,NNE,22,5.9,5.9,53,0.00,CLR,,0.04,WeatherDisplay:10.37,2013-03-24 23:38:00,
2013-03-24 18:43:00,32.5,17.7,29.80,NNW,338,3.8,6.0,54,0.00,CLR,,0.04,WeatherDisplay:10.37,2013-03-24 23:43:00,
2013-03-24 18:48:00,32.4,17.1,29.80,NNW,338,4.5,7.4,53,0.00,CLR,,0.04,WeatherDisplay:10.37,2013-03-24 23:48:00,
2013-03-24 18:53:00,32.4,17.1,29.80,NNW,342,5.0,7.0,53,0.00,CLR,,0.04,WeatherDisplay:10.37,2013-03-24 23:53:00,
2013-03-24 18:58:00,32.2,17.4,29.80,NNW,343,3.0,9.0,54,0.00,CLR,,0.04,WeatherDisplay:10.37,2013-03-24 23:58:00,
2013-03-24 19:03:00,32.2,17.4,29.80,NNW,341,3.0,6.0,54,0.00,CLR,,0.04,WeatherDisplay:10.37,2013-03-25 00:03:00,
2013-03-24 19:08:00,32.2,17.4,29.80,NNW,342,3.0,5.0,54,0.00,CLR,,0.04,WeatherDisplay:10.37,2013-03-25 00:08:00,
2013-03-24 19:13:00,32.2,17.4,29.83,NW,315,5.6,8.1,54,0.00,CLR,,0.04,WeatherDisplay:10.37,2013-03-25 00:13:00,
2013-03-24 19:18:00,32.2,16.9,29.83,North,0,6.7,8.1,53,0.00,CLR,,0.04,WeatherDisplay:10.37,2013-03-25 00:18:00,
2013-03-24 19:23:00,32.2,16.9,29.83,North,0,6.0,8.1,53,0.00,CLR,,0.04,WeatherDisplay:10.37,2013-03-25 00:23:00,
2013-03-24 19:28:00,32.2,16.9,29.83,NNW,348,5.0,8.0,53,0.00,CLR,,0.04,WeatherDisplay:10.37,2013-03-25 00:28:00,
2013-03-24 19:33:00,32.2,16.9,29.83,North,0,5.4,6.9,53,0.00,CLR,,0.04,WeatherDisplay:10.37,2013-03-25 00:33:00,
2013-03-24 19:38:00,32.2,16.9,29.83,North,0,6.4,6.9,53,0.00,CLR,,0.04,WeatherDisplay:10.37,2013-03-25 00:38:00,
2013-03-24 19:43:00,32.2,16.9,29.83,NW,315,4.3,4.6,53,0.00,CLR,,0.04,WeatherDisplay:10.37,2013-03-25 00:43:00,
2013-03-24 19:48:00,32.0,17.2,29.83,NW,315,3.3,4.6,54,0.00,CLR,,0.04,WeatherDisplay:10.37,2013-03-25 00:48:00,
2013-03-24 19:53:00,32.2,17.4,29.83,North,0,5.6,6.9,54,0.00,CLR,,0.04,WeatherDisplay:10.37,2013-03-25 00:53:00,
2013-03-24 19:58:00,32.2,16.9,29.83,North,0,7.4,10.4,53,0.00,CLR,,0.04,WeatherDisplay:10.37,2013-03-25 00:58:00,
2013-03-24 20:03:00,32.2,17.4,29.83,NNW,338,4.7,8.1,54,0.00,CLR,,0.04,WeatherDisplay:10.37,2013-03-25 01:03:00,
2013-03-24 20:08:00,32.2,17.4,29.83,NNW,338,6.9,10.4,54,0.00,CLR,,0.04,WeatherDisplay:10.37,2013-03-25 01:08:00,
2013-03-24 20:13:00,32.2,17.4,29.86,North,0,6.2,9.2,54,0.00,CLR,,0.04,WeatherDisplay:10.37,2013-03-25 01:13:00,
2013-03-24 20:18:00,32.2,17.8,29.86,NNW,338,3.3,6.4,55,0.00,CLR,,0.04,WeatherDisplay:10.37,2013-03-25 01:18:00,
2013-03-24 20:23:00,32.2,17.8,29.86,NNW,338,6.2,8.1,55,0.00,CLR,,0.04,WeatherDisplay:10.37,2013-03-25 01:23:00,
2013-03-24 20:28:00,32.2,17.8,29.86,North,0,5.9,9.2,55,0.00,CLR,,0.04,WeatherDisplay:10.37,2013-03-25 01:28:00,
2013-03-24 20:33:00,32.2,17.8,29.86,North,0,4.7,5.8,55,0.00,CLR,,0.04,WeatherDisplay:10.37,2013-03-25 01:33:00,
2013-03-24 20:38:00,32.2,17.8,29.86,NNW,338,7.1,10.4,55,0.00,CLR,,0.04,WeatherDisplay:10.37,2013-03-25 01:38:00,
2013-03-24 20:43:00,32.0,17.6,29.86,North,0,3.8,4.6,55,0.00,CLR,,0.04,WeatherDisplay:10.37,2013-03-25 01:43:00,
2013-03-24 20:48:00,32.0,17.6,29.86,NNW,338,4.0,5.8,55,0.00,CLR,,0.04,WeatherDisplay:10.37,2013-03-25 01:48:00,
2013-03-24 20:53:00,32.0,17.6,29.86,North,0,4.3,6.2,55,0.00,CLR,,0.04,WeatherDisplay:10.37,2013-03-25 01:53:00,
2013-03-24 20:58:00,32.0,17.6,29.86,North,0,3.8,5.8,55,0.00,CLR,,0.04,WeatherDisplay:10.37,2013-03-25 01:58:00,
2013-03-24 21:03:00,32.0,17.2,29.86,NNW,338,6.0,8.1,54,0.00,CLR,,0.04,WeatherDisplay:10.37,2013-03-25 02:03:00,
2013-03-24 21:08:00,32.0,17.2,29.86,NNE,22,5.6,8.1,54,0.00,CLR,,0.04,WeatherDisplay:10.37,2013-03-25 02:08:00,
2013-03-24 21:13:00,32.0,17.2,29.86,NNW,338,4.0,5.8,54,0.00,CLR,,0.04,WeatherDisplay:10.37,2013-03-25 02:13:00,
2013-03-24 21:18:00,32.0,17.2,29.86,North,0,5.4,6.9,54,0.00,CLR,,0.04,WeatherDisplay:10.37,2013-03-25 02:18:00,
2013-03-24 21:23:00,31.8,17.5,29.86,NNW,338,5.4,6.4,55,0.00,CLR,,0.04,WeatherDisplay:10.37,2013-03-25 02:23:00,
2013-03-24 21:28:00,31.8,17.5,29.86,NNW,338,5.9,9.2,55,0.00,CLR,,0.04,WeatherDisplay:10.37,2013-03-25 02:28:00,
2013-03-24 21:33:00,31.8,17.5,29.86,NW,315,3.6,4.6,55,0.00,CLR,,0.04,WeatherDisplay:10.37,2013-03-25 02:33:00,
2013-03-24 21:38:00,31.8,17.5,29.86,North,0,5.4,5.8,55,0.00,CLR,,0.04,WeatherDisplay:10.37,2013-03-25 02:38:00,
2013-03-24 21:43:00,31.8,17.9,29.86,NNE,22,4.5,8.1,56,0.00,CLR,,0.04,WeatherDisplay:10.37,2013-03-25 02:43:00,
2013-03-24 21:48:00,31.8,17.9,29.86,North,0,5.6,8.1,56,0.00,CLR,,0.04,WeatherDisplay:10.37,2013-03-25 02:48:00,
2013-03-24 21:53:00,31.8,17.5,29.86,North,0,4.9,9.2,55,0.00,CLR,,0.04,WeatherDisplay:10.37,2013-03-25 02:53:00,
2013-03-24 21:58:00,31.8,17.5,29.86,NNE,22,6.7,9.2,55,0.00,CLR,,0.04,WeatherDisplay:10.37,2013-03-25 02:58:00,
2013-03-24 22:03:00,31.8,17.5,29.86,NNE,22,4.3,4.6,55,0.00,CLR,,0.04,WeatherDisplay:10.37,2013-03-25 03:03:00,
2013-03-24 22:08:00,31.8,17.5,29.86,North,0,4.9,6.9,55,0.00,CLR,,0.04,WeatherDisplay:10.37,2013-03-25 03:08:00,
2013-03-24 22:13:00,31.8,17.5,29.86,NW,315,4.5,5.8,55,0.00,CLR,,0.04,WeatherDisplay:10.37,2013-03-25 03:13:00,
2013-03-24 22:18:00,31.8,17.9,29.86,NNW,338,4.5,5.8,56,0.00,CLR,,0.04,WeatherDisplay:10.37,2013-03-25 03:18:00,
2013-03-24 22:23:00,31.6,18.1,29.86,NNW,338,4.7,5.8,57,0.00,CLR,,0.04,WeatherDisplay:10.37,2013-03-25 03:23:00,
2013-03-24 22:28:00,31.6,18.1,29.86,NW,315,5.4,6.0,57,0.00,CLR,,0.04,WeatherDisplay:10.37,2013-03-25 03:28:00,
2013-03-24 22:33:00,31.6,18.1,29.86,NNW,338,4.7,5.8,57,0.00,CLR,,0.04,WeatherDisplay:10.37,2013-03-25 03:33:00,
2013-03-24 22:38:00,31.5,18.0,29.86,North,0,4.0,5.8,57,0.00,CLR,,0.04,WeatherDisplay:10.37,2013-03-25 03:38:00,
2013-03-24 22:43:00,31.5,18.4,29.86,NNE,22,4.7,5.8,58,0.00,CLR,,0.04,WeatherDisplay:10.37,2013-03-25 03:43:00,
2013-03-24 22:48:00,31.5,18.0,29.86,NNE,22,6.9,8.1,57,0.00,CLR,,0.04,WeatherDisplay:10.37,2013-03-25 03:48:00,
2013-03-24 22:53:00,31.5,17.6,29.86,North,0,4.7,6.9,56,0.00,CLR,,0.04,WeatherDisplay:10.37,2013-03-25 03:53:00,
2013-03-24 22:58:00,31.5,18.0,29.86,NNW,338,6.4,6.9,57,0.00,CLR,,0.04,WeatherDisplay:10.37,2013-03-25 03:58:00,
2013-03-24 23:00:00,31.5,18.0,29.86,NNE,22,4.5,8.1,57,0.00,CLR,,0.04,WeatherDisplay:10.37,2013-03-25 04:00:00,
2013-03-24 23:05:00,31.3,17.8,29.86,NNW,338,4.5,5.4,57,0.00,CLR,,0.04,WeatherDisplay:10.37,2013-03-25 04:05:00,
2013-03-24 23:10:00,31.3,17.8,29.86,North,0,6.9,10.4,57,0.00,CLR,,0.04,WeatherDisplay:10.37,2013-03-25 04:10:00,
2013-03-24 23:15:00,31.3,18.2,29.86,NNE,22,4.9,6.2,58,0.00,CLR,,0.04,WeatherDisplay:10.37,2013-03-25 04:15:00,
2013-03-24 23:20:00,31.1,18.0,29.86,North,0,4.0,6.2,58,0.00,CLR,,0.04,WeatherDisplay:10.37,2013-03-25 04:20:00,
2013-03-24 23:25:00,31.1,18.4,29.89,NNW,338,4.0,5.4,59,0.00,CLR,,0.04,WeatherDisplay:10.37,2013-03-25 04:25:00,
2013-03-24 23:30:00,31.1,19.2,29.89,NNE,22,4.0,5.9,61,0.00,CLR,,0.04,WeatherDisplay:10.37,2013-03-25 04:30:00,
2013-03-24 23:35:00,30.9,19.4,29.89,NE,45,4.7,5.8,62,0.00,CLR,,0.04,WeatherDisplay:10.37,2013-03-25 04:35:00,
2013-03-24 23:40:00,30.9,19.8,29.89,NNE,22,5.4,8.1,63,0.00,CLR,,0.04,WeatherDisplay:10.37,2013-03-25 04:40:00,
2013-03-24 23:45:00,30.7,20.0,29.89,NE,45,4.3,6.0,64,0.00,CLR,,0.04,WeatherDisplay:10.37,2013-03-25 04:45:00,
2013-03-24 23:50:00,30.7,20.0,29.89,North,0,4.3,6.0,64,0.00,CLR,,0.04,WeatherDisplay:10.37,2013-03-25 04:50:00,
2013-03-24 23:55:00,30.6,20.5,29.86,NNW,338,4.5,6.2,66,0.00,CLR,,0.04,WeatherDisplay:10.37,2013-03-25 04:55:00,